Methodist Camp, Iowa
Current Conditions -  °F | °C
As of 3:54 AM on Thursday 23 Oct 2014 (Local Time) from KMJQ Reporting Station
Overcast Overcast  
Wind Chill: 55°   Ceiling: 300
Heat Index: 55°   Visibility: 7mi
Dew Point: 54°   Wind: 8mph
Humidity: 94%   Direction: 280°W
Pressure: 30"   Gusts: NA
Location:  43.4265°N, 95.1547°W
Report Text: KMJQ 230854Z AUTO 28007KT 7SM OVC003 13/12 A3000 RMK AO2
Loading
Personal Weather Stations






























Interactive Weather Map
Tropical Storm Tracking
New forecast layout! Learn more

10-Day Weather Forecast

Advertisements
Track Severe Weather on mobile